createdAt,value
2022-09-09T00:01:11.071Z,15.00
2022-09-09T00:06:23.053Z,14.80
2022-09-09T00:11:38.623Z,14.60
2022-09-09T00:16:50.658Z,14.50
2022-09-09T00:22:05.252Z,14.50
2022-09-09T00:27:24.684Z,14.50
2022-09-09T00:32:32.086Z,14.60
2022-09-09T00:37:36.356Z,14.20
2022-09-09T00:42:44.461Z,14.10
2022-09-09T00:47:48.715Z,14.10
2022-09-09T00:53:03.897Z,14.10
2022-09-09T00:58:09.924Z,13.90
2022-09-09T01:03:25.032Z,13.90
2022-09-09T01:08:43.015Z,14.10
2022-09-09T01:13:51.479Z,14.30
2022-09-09T01:18:56.637Z,14.50
2022-09-09T01:24:12.667Z,14.60
2022-09-09T01:29:19.493Z,14.40
2022-09-09T01:34:23.128Z,14.20
2022-09-09T01:39:26.336Z,13.90
2022-09-09T01:44:31.702Z,14.00
2022-09-09T01:49:34.658Z,14.00
2022-09-09T01:54:37.640Z,14.00
2022-09-09T01:59:55.457Z,13.90
2022-09-09T02:05:09.736Z,14.10
2022-09-09T02:10:18.293Z,14.30
2022-09-09T02:15:28.586Z,14.20
2022-09-09T02:20:35.164Z,14.00
2022-09-09T02:25:39.139Z,13.90
2022-09-09T02:30:48.076Z,14.00
2022-09-09T02:35:53.056Z,13.90
2022-09-09T02:40:55.975Z,13.50
2022-09-09T02:46:20.052Z,13.20
2022-09-09T02:51:29.170Z,13.10
2022-09-09T02:56:36.015Z,13.30
2022-09-09T03:01:40.980Z,13.60
2022-09-09T03:06:44.157Z,13.60
2022-09-09T03:11:47.031Z,13.60
2022-09-09T03:16:51.281Z,13.60
2022-09-09T03:21:54.289Z,13.50
2022-09-09T03:26:57.352Z,13.30
2022-09-09T03:37:35.843Z,13.40
2022-09-09T03:42:38.856Z,13.10
2022-09-09T03:47:41.526Z,13.20
2022-09-09T03:52:45.595Z,13.30
2022-09-09T03:57:48.252Z,13.40
2022-09-09T04:02:51.004Z,13.50
2022-09-09T04:07:55.153Z,13.40
2022-09-09T04:12:57.776Z,13.40
2022-09-09T04:18:00.479Z,13.40
2022-09-09T04:23:04.525Z,13.40
2022-09-09T04:28:07.168Z,13.40
2022-09-09T04:33:11.594Z,13.50
2022-09-09T04:38:15.960Z,13.60
2022-09-09T04:43:19.800Z,13.60
2022-09-09T04:48:23.228Z,13.60
2022-09-09T04:53:28.061Z,13.80
2022-09-09T04:58:30.949Z,14.00
2022-09-09T05:03:33.595Z,14.10
2022-09-09T05:08:37.952Z,14.20
2022-09-09T05:13:41.633Z,14.20
2022-09-09T05:18:45.279Z,14.40
2022-09-09T05:23:49.464Z,14.60
2022-09-09T05:28:52.138Z,14.70
2022-09-09T05:33:54.897Z,14.90
2022-09-09T05:38:58.868Z,15.00
2022-09-09T05:44:02.119Z,15.30
2022-09-09T05:49:06.467Z,15.60
2022-09-09T05:54:10.627Z,15.80
2022-09-09T05:59:13.542Z,16.00
2022-09-09T06:04:16.251Z,16.10
2022-09-09T06:09:20.325Z,16.30
2022-09-09T06:14:23.057Z,16.40
2022-09-09T06:19:27.814Z,16.60
2022-09-09T06:24:33.865Z,16.70
2022-09-09T06:29:36.527Z,16.90
2022-09-09T06:34:39.291Z,17.20
2022-09-09T06:39:43.329Z,17.20
2022-09-09T06:44:46.182Z,17.30
2022-09-09T06:49:48.849Z,17.40
2022-09-09T06:54:52.832Z,17.50
2022-09-09T06:59:55.486Z,18.00
2022-09-09T07:04:59.542Z,18.50
2022-09-09T07:10:05.039Z,18.50
2022-09-09T07:15:08.378Z,19.20
2022-09-09T07:20:11.230Z,19.30
2022-09-09T07:25:17.952Z,18.90
2022-09-09T07:30:25.530Z,19.10
2022-09-09T07:35:30.150Z,19.40
2022-09-09T07:40:34.787Z,20.10
2022-09-09T07:45:37.478Z,20.40
2022-09-09T07:50:40.388Z,20.40
2022-09-09T07:55:44.342Z,21.90
2022-09-09T08:00:46.968Z,24.80
2022-09-09T08:05:49.811Z,25.70
2022-09-09T08:10:53.907Z,24.90
2022-09-09T08:15:56.763Z,25.60
2022-09-09T08:20:59.549Z,24.80
2022-09-09T08:26:07.890Z,23.30
2022-09-09T08:31:13.481Z,22.30
2022-09-09T08:36:18.557Z,21.80
2022-09-09T08:41:39.130Z,22.40
2022-09-09T08:46:53.962Z,23.30
2022-09-09T08:51:58.204Z,22.90
2022-09-09T08:57:02.297Z,22.50
2022-09-09T09:02:16.925Z,22.90
2022-09-09T09:07:32.882Z,24.10
2022-09-09T09:12:40.181Z,24.80
2022-09-09T09:17:43.835Z,24.10
2022-09-09T09:22:51.667Z,23.70
2022-09-09T09:28:01.556Z,23.00
2022-09-09T09:33:17.905Z,21.60
2022-09-09T09:44:14.208Z,17.70
2022-09-09T09:49:21.803Z,17.80
2022-09-09T09:54:53.580Z,17.90
2022-09-09T10:00:25.846Z,18.70
2022-09-09T10:06:13.414Z,23.70
2022-09-09T10:12:06.508Z,28.40
2022-09-09T10:17:51.476Z,36.90
2022-09-09T10:24:00.522Z,38.20
2022-09-09T10:29:53.530Z,40.00
2022-09-09T10:42:14.226Z,44.40
2022-09-09T11:01:03.421Z,44.90
2022-09-09T11:07:09.713Z,47.00
2022-09-09T11:18:24.011Z,47.60
2022-09-09T11:23:41.812Z,40.10
2022-09-09T11:29:04.761Z,33.10
2022-09-09T11:34:21.326Z,27.80
2022-09-09T11:39:53.870Z,23.50
2022-09-09T11:44:58.398Z,26.20
2022-09-09T11:50:11.302Z,27.70
2022-09-09T11:55:27.412Z,34.40
2022-09-09T12:00:37.964Z,37.80
2022-09-09T12:05:43.315Z,36.10
2022-09-09T12:10:56.730Z,33.50
2022-09-09T12:16:03.164Z,33.30
2022-09-09T12:21:13.575Z,41.40
2022-09-09T12:26:28.597Z,43.40
2022-09-09T12:31:38.284Z,45.90
2022-09-09T12:36:43.204Z,47.60
2022-09-09T12:41:57.650Z,47.10
2022-09-09T12:47:04.783Z,39.70
2022-09-09T12:52:10.866Z,32.50
2022-09-09T12:57:14.671Z,30.20
2022-09-09T13:02:23.985Z,29.20
2022-09-09T13:07:27.311Z,28.70
2022-09-09T13:12:29.971Z,36.00
2022-09-09T13:17:34.035Z,42.90
2022-09-09T13:22:38.867Z,40.30
2022-09-09T13:27:43.244Z,43.40
2022-09-09T13:32:47.925Z,41.30
2022-09-09T13:37:50.695Z,37.70
2022-09-09T13:42:56.906Z,40.00
2022-09-09T13:48:14.028Z,42.10
2022-09-09T13:53:16.695Z,37.00
2022-09-09T13:58:20.195Z,32.70
2022-09-09T14:03:24.139Z,31.20
2022-09-09T14:08:29.252Z,31.70
2022-09-09T14:13:32.186Z,31.00
2022-09-09T14:18:36.090Z,30.00
2022-09-09T14:23:39.123Z,29.30
2022-09-09T14:28:58.023Z,28.90
2022-09-09T14:34:02.295Z,28.80
2022-09-09T14:39:05.271Z,29.20
2022-09-09T14:44:09.108Z,29.70
2022-09-09T14:49:13.801Z,30.80
2022-09-09T14:54:17.207Z,32.30
2022-09-09T14:59:19.836Z,32.40
2022-09-09T15:04:23.843Z,30.90
2022-09-09T15:09:26.453Z,29.20
2022-09-09T15:14:29.088Z,27.80
2022-09-09T15:19:33.172Z,27.20
2022-09-09T15:24:36.776Z,26.90
2022-09-09T15:29:39.748Z,26.80
2022-09-09T15:34:43.737Z,26.20
2022-09-09T15:39:46.402Z,25.40
2022-09-09T15:44:49.031Z,24.30
2022-09-09T15:49:53.325Z,23.70
2022-09-09T15:54:55.909Z,23.20
2022-09-09T16:00:00.666Z,22.90
2022-09-09T16:05:05.709Z,23.00
2022-09-09T16:10:09.364Z,23.10
2022-09-09T16:15:13.051Z,23.20
2022-09-09T16:20:17.026Z,23.00
2022-09-09T16:25:19.676Z,23.00
2022-09-09T16:30:22.803Z,22.90
2022-09-09T16:35:27.238Z,22.60
2022-09-09T16:40:29.858Z,22.00
2022-09-09T16:45:33.135Z,21.80
2022-09-09T16:50:37.132Z,21.80
2022-09-09T16:55:41.707Z,21.80
2022-09-09T17:00:44.415Z,21.80
2022-09-09T17:05:48.367Z,21.80
2022-09-09T17:10:50.976Z,21.90
2022-09-09T17:15:53.798Z,22.00
2022-09-09T17:20:57.803Z,21.80
2022-09-09T17:26:01.148Z,21.40
2022-09-09T17:31:05.789Z,21.00
2022-09-09T17:36:12.222Z,20.80
2022-09-09T17:41:18.103Z,20.50
2022-09-09T17:46:22.895Z,20.30
2022-09-09T17:51:30.555Z,20.20
2022-09-09T17:56:33.944Z,20.00
2022-09-09T18:01:39.524Z,20.00
2022-09-09T18:06:45.088Z,19.80
2022-09-09T18:11:49.614Z,19.60
2022-09-09T18:16:53.020Z,19.50
2022-09-09T18:22:00.281Z,19.30
2022-09-09T18:27:05.311Z,19.20
2022-09-09T18:32:08.218Z,19.00
2022-09-09T18:37:13.241Z,18.80
2022-09-09T18:42:15.919Z,18.80
2022-09-09T18:47:18.717Z,18.90
2022-09-09T18:52:22.676Z,18.70
2022-09-09T18:57:25.392Z,18.70
2022-09-09T19:02:28.041Z,19.00
2022-09-09T19:07:31.993Z,18.90
2022-09-09T19:12:34.675Z,18.80
2022-09-09T19:17:37.518Z,18.60
2022-09-09T19:22:41.472Z,18.50
2022-09-09T19:27:44.217Z,18.50
2022-09-09T19:32:53.656Z,18.60
2022-09-09T19:37:59.002Z,18.60
2022-09-09T20:40:46.691Z,18.00
2022-09-09T20:45:57.604Z,17.80
2022-09-09T20:51:05.224Z,18.00
2022-09-09T20:56:11.475Z,18.10
2022-09-09T21:01:17.274Z,18.10
2022-09-09T21:06:20.506Z,18.10
2022-09-09T21:11:24.495Z,18.10
2022-09-09T21:16:27.919Z,18.00
2022-09-09T21:21:30.610Z,18.00
2022-09-09T21:26:35.468Z,17.90
2022-09-09T21:31:38.325Z,18.00
2022-09-09T21:36:41.039Z,18.00
2022-09-09T21:41:45.015Z,17.90
2022-09-09T21:46:47.831Z,18.10
2022-09-09T21:51:50.811Z,18.00
2022-09-09T21:56:54.761Z,18.00
2022-09-09T22:01:58.536Z,17.90
2022-09-09T22:07:01.370Z,17.70
2022-09-09T22:12:05.721Z,17.40
2022-09-09T22:17:08.381Z,17.20
2022-09-09T22:22:11.044Z,17.00
2022-09-09T22:27:15.669Z,16.80
2022-09-09T22:32:18.374Z,16.90
2022-09-09T22:37:22.074Z,17.00
2022-09-09T22:42:26.100Z,17.00
2022-09-09T22:47:28.752Z,16.80
2022-09-09T22:52:32.095Z,16.70
2022-09-09T22:57:36.023Z,16.70
2022-09-09T23:02:40.964Z,16.60
2022-09-09T23:07:43.960Z,16.60
2022-09-09T23:12:48.412Z,16.40
2022-09-09T23:17:51.370Z,16.20
2022-09-09T23:22:55.887Z,16.00
2022-09-09T23:28:00.533Z,15.90
2022-09-09T23:33:03.205Z,15.70
2022-09-09T23:38:06.273Z,15.50
2022-09-09T23:43:10.367Z,15.50
2022-09-09T23:48:13.009Z,15.60
2022-09-09T23:53:15.823Z,15.90
2022-09-09T23:58:20.487Z,15.90
